createdAt,value
2019-04-06T00:00:05.175Z,8.6
2019-04-06T00:01:12.107Z,8.6
2019-04-06T00:02:19.313Z,8.7
2019-04-06T00:03:26.515Z,8.6
2019-04-06T00:04:33.720Z,8.7
2019-04-06T00:05:40.924Z,8.7
2019-04-06T00:06:47.583Z,8.7
2019-04-06T00:07:54.511Z,8.7
2019-04-06T00:09:01.714Z,8.7
2019-04-06T00:10:09.331Z,8.7
2019-04-06T00:11:16.549Z,8.7
2019-04-06T00:12:23.749Z,8.7
2019-04-06T00:13:30.956Z,8.7
2019-04-06T00:14:38.152Z,8.8
2019-04-06T00:15:45.357Z,8.7
2019-04-06T00:16:52.602Z,8.7
2019-04-06T00:17:59.821Z,8.7
2019-04-06T00:19:06.775Z,8.7
2019-04-06T00:20:13.979Z,8.6
2019-04-06T00:21:20.926Z,8.6
2019-04-06T00:22:28.145Z,8.6
2019-04-06T00:23:35.345Z,8.6
2019-04-06T00:24:42.544Z,8.6
2019-04-06T00:25:49.750Z,8.7
2019-04-06T00:26:56.677Z,8.6
2019-04-06T00:28:03.875Z,8.6
2019-04-06T00:29:10.801Z,8.6
2019-04-06T00:30:18.002Z,8.6
2019-04-06T00:31:25.203Z,8.6
2019-04-06T00:32:32.404Z,8.6
2019-04-06T00:33:39.349Z,8.5
2019-04-06T00:34:46.536Z,8.5
2019-04-06T00:35:53.518Z,8.5
2019-04-06T00:37:00.755Z,8.5
2019-04-06T00:38:07.988Z,8.5
2019-04-06T00:39:15.191Z,8.6
2019-04-06T00:40:22.399Z,8.6
2019-04-06T00:41:29.597Z,8.6
2019-04-06T00:42:36.798Z,8.6
2019-04-06T00:43:43.995Z,8.6
2019-04-06T00:44:51.256Z,8.6
2019-04-06T00:45:58.503Z,8.6
2019-04-06T00:47:05.708Z,8.6
2019-04-06T00:48:12.902Z,8.6
2019-04-06T00:49:20.107Z,8.6
2019-04-06T00:50:27.307Z,8.6
2019-04-06T00:51:34.514Z,8.6
2019-04-06T00:52:41.713Z,8.6
2019-04-06T00:53:48.917Z,8.6
2019-04-06T00:54:56.167Z,8.6
2019-04-06T00:56:03.371Z,8.6
2019-04-06T00:57:10.304Z,8.5
2019-04-06T00:58:17.242Z,8.5
2019-04-06T00:59:24.244Z,8.5
2019-04-06T01:00:31.441Z,8.5
2019-04-06T01:01:38.706Z,8.4
2019-04-06T01:02:45.936Z,8.5
2019-04-06T01:03:52.867Z,8.5
2019-04-06T01:05:00.071Z,8.4
2019-04-06T01:06:07.269Z,8.5
2019-04-06T01:07:14.469Z,8.4
2019-04-06T01:08:21.732Z,8.4
2019-04-06T01:09:28.952Z,8.5
2019-04-06T01:10:36.214Z,8.4
2019-04-06T01:11:43.420Z,8.4
2019-04-06T01:12:50.355Z,8.4
2019-04-06T01:13:57.559Z,8.4
2019-04-06T01:15:04.753Z,8.4
2019-04-06T01:16:12.031Z,8.4
2019-04-06T01:17:18.950Z,8.4
2019-04-06T01:18:26.159Z,8.5
2019-04-06T01:19:33.436Z,8.4
2019-04-06T01:20:40.643Z,8.5
2019-04-06T01:21:47.850Z,8.5
2019-04-06T01:22:55.048Z,8.4
2019-04-06T01:24:02.253Z,8.4
2019-04-06T01:25:09.458Z,8.4
2019-04-06T01:26:16.656Z,8.5
2019-04-06T01:27:23.319Z,8.4
2019-04-06T01:28:30.526Z,8.5
2019-04-06T01:29:37.726Z,8.4
2019-04-06T01:30:44.668Z,8.4
2019-04-06T01:31:51.866Z,8.5
2019-04-06T01:32:59.084Z,8.5
2019-04-06T01:34:06.001Z,8.5
2019-04-06T01:35:13.202Z,8.5
2019-04-06T01:36:20.415Z,8.5
2019-04-06T01:37:27.632Z,8.5
2019-04-06T01:38:34.873Z,8.5
2019-04-06T01:39:42.098Z,8.5
2019-04-06T01:40:49.299Z,8.5
2019-04-06T01:41:56.511Z,8.5
2019-04-06T01:43:03.730Z,8.5
2019-04-06T01:44:10.936Z,8.5
2019-04-06T01:45:17.902Z,8.5
2019-04-06T01:46:24.961Z,8.5
2019-04-06T01:47:31.894Z,8.5
2019-04-06T01:48:39.092Z,8.5
2019-04-06T01:49:46.289Z,8.6
2019-04-06T01:50:53.548Z,8.6
2019-04-06T01:52:00.468Z,8.5
2019-04-06T01:53:07.664Z,8.5
2019-04-06T01:54:14.864Z,8.5
2019-04-06T01:55:22.069Z,8.5
2019-04-06T01:56:29.270Z,8.5
2019-04-06T01:57:36.486Z,8.5
2019-04-06T01:58:43.736Z,8.5
2019-04-06T01:59:50.947Z,8.5
2019-04-06T02:00:58.211Z,8.5
2019-04-06T02:02:05.231Z,8.5
2019-04-06T02:03:12.425Z,8.5
2019-04-06T02:04:19.622Z,8.5
2019-04-06T02:05:26.852Z,8.5
2019-04-06T02:06:34.045Z,8.5
2019-04-06T02:07:40.985Z,8.5
2019-04-06T02:08:48.190Z,8.5
2019-04-06T02:09:55.395Z,8.5
2019-04-06T02:11:02.610Z,8.4
2019-04-06T02:12:09.814Z,8.4
2019-04-06T02:13:16.780Z,8.4
2019-04-06T02:14:23.708Z,8.4
2019-04-06T02:15:30.918Z,8.4
2019-04-06T02:16:38.120Z,8.4
2019-04-06T02:17:45.326Z,8.3
2019-04-06T02:18:52.526Z,8.3
2019-04-06T02:19:59.456Z,8.3
2019-04-06T02:21:06.102Z,8.3
2019-04-06T02:22:13.309Z,8.3
2019-04-06T02:23:20.523Z,8.3
2019-04-06T02:24:27.897Z,8.3
2019-04-06T02:25:35.122Z,8.3
2019-04-06T02:26:42.052Z,8.3
2019-04-06T02:27:48.984Z,8.3
2019-04-06T02:28:56.216Z,8.3
2019-04-06T02:30:03.404Z,8.3
2019-04-06T02:31:10.635Z,8.2
2019-04-06T02:32:17.878Z,8.2
2019-04-06T02:33:25.094Z,8.2
2019-04-06T02:34:32.489Z,8.2
2019-04-06T02:35:39.752Z,8.2
2019-04-06T02:36:46.973Z,8.2
2019-04-06T02:37:54.179Z,8.2
2019-04-06T02:39:01.379Z,8.2
2019-04-06T02:40:09.046Z,8.1
2019-04-06T02:41:15.969Z,8.1
2019-04-06T02:42:23.172Z,8.1
2019-04-06T02:43:30.376Z,8.1
2019-04-06T02:44:37.576Z,8
2019-04-06T02:45:44.773Z,8.1
2019-04-06T02:46:52.051Z,8.1
2019-04-06T02:47:59.363Z,8
2019-04-06T02:49:06.789Z,8
2019-04-06T02:50:14.335Z,8
2019-04-06T02:51:21.262Z,8
2019-04-06T02:52:28.619Z,8
2019-04-06T02:53:35.972Z,8
2019-04-06T02:54:43.164Z,7.9
2019-04-06T02:55:50.512Z,7.9
2019-04-06T02:56:57.759Z,8
2019-04-06T02:58:05.109Z,7.9
2019-04-06T02:59:12.163Z,7.9
2019-04-06T03:00:19.366Z,7.9
2019-04-06T03:01:26.666Z,7.9
2019-04-06T03:02:33.938Z,7.9
2019-04-06T03:03:41.154Z,7.9
2019-04-06T03:04:48.370Z,7.9
2019-04-06T03:05:55.398Z,7.9
2019-04-06T03:07:02.699Z,7.9
2019-04-06T03:08:10.100Z,7.9
2019-04-06T03:09:17.302Z,7.9
2019-04-06T03:10:24.383Z,7.9
2019-04-06T03:11:31.570Z,7.9
2019-04-06T03:12:38.673Z,7.9
2019-04-06T03:13:45.908Z,7.9
2019-04-06T03:14:53.036Z,7.9
2019-04-06T03:16:00.315Z,7.9
2019-04-06T03:17:07.497Z,7.9
2019-04-06T03:18:14.829Z,7.9
2019-04-06T03:19:21.934Z,7.9
2019-04-06T03:20:29.311Z,7.9
2019-04-06T03:21:36.520Z,7.9
2019-04-06T03:22:43.725Z,7.9
2019-04-06T03:23:52.850Z,7.9
2019-04-06T03:24:59.791Z,7.8
2019-04-06T03:26:07.064Z,7.8
2019-04-06T03:27:14.184Z,7.8
2019-04-06T03:28:21.726Z,7.8
2019-04-06T03:29:29.073Z,7.8
2019-04-06T03:30:36.382Z,7.8
2019-04-06T03:31:44.043Z,7.8
2019-04-06T03:32:51.747Z,7.7
2019-04-06T03:33:59.116Z,7.7
2019-04-06T03:35:06.763Z,7.7
2019-04-06T03:36:14.047Z,7.7
2019-04-06T03:37:21.234Z,7.7
2019-04-06T03:38:28.705Z,7.7
2019-04-06T03:39:36.114Z,7.7
2019-04-06T03:40:43.315Z,7.6
2019-04-06T03:41:50.240Z,7.6
2019-04-06T03:42:57.443Z,7.5
2019-04-06T03:44:04.711Z,7.5
2019-04-06T03:45:12.066Z,7.5
2019-04-06T03:46:19.697Z,7.4
2019-04-06T03:47:27.134Z,7.4
2019-04-06T03:48:34.610Z,7.4
2019-04-06T03:49:41.810Z,7.4
2019-04-06T03:50:48.899Z,7.3
2019-04-06T03:51:56.310Z,7.3
2019-04-06T03:53:03.245Z,7.2
2019-04-06T03:54:10.554Z,7.2
2019-04-06T03:55:17.762Z,7.1
2019-04-06T03:56:24.679Z,7.1
2019-04-06T03:57:31.960Z,7
2019-04-06T03:58:39.272Z,7
2019-04-06T03:59:46.492Z,7
2019-04-06T04:00:53.935Z,6.9
2019-04-06T04:02:00.866Z,6.9
2019-04-06T04:03:08.214Z,6.8
2019-04-06T04:04:15.510Z,6.8
2019-04-06T04:05:22.925Z,6.7
2019-04-06T04:06:29.947Z,6.7
2019-04-06T04:07:37.148Z,6.6
2019-04-06T04:08:44.348Z,6.6
2019-04-06T04:09:51.606Z,6.6
2019-04-06T04:10:58.866Z,6.5
2019-04-06T04:12:05.803Z,6.5
2019-04-06T04:13:12.998Z,6.4
2019-04-06T04:14:20.194Z,6.4
2019-04-06T04:15:27.541Z,6.3
2019-04-06T04:16:34.746Z,6.3
2019-04-06T04:17:41.573Z,6.3
2019-04-06T04:18:49.059Z,6.2
2019-04-06T04:19:56.255Z,6.2
2019-04-06T04:21:03.459Z,6.2
2019-04-06T04:22:10.747Z,6.1
2019-04-06T04:23:17.757Z,6.1
2019-04-06T04:24:25.014Z,6
2019-04-06T04:25:32.427Z,6
2019-04-06T04:26:39.698Z,6
2019-04-06T04:27:46.887Z,6
2019-04-06T04:28:54.336Z,6
2019-04-06T04:30:01.692Z,6
2019-04-06T04:31:09.032Z,6
2019-04-06T04:32:16.845Z,6
2019-04-06T04:33:24.100Z,6
2019-04-06T04:34:31.302Z,6
2019-04-06T04:35:38.723Z,6
2019-04-06T04:36:45.968Z,6
2019-04-06T04:37:53.330Z,6.1
2019-04-06T04:39:00.448Z,6.1
2019-04-06T04:40:07.762Z,6.1
2019-04-06T04:41:15.209Z,6.1
2019-04-06T04:42:22.536Z,6.1
2019-04-06T04:43:29.500Z,6.1
2019-04-06T04:44:36.692Z,6.2
2019-04-06T04:45:43.904Z,6.2
2019-04-06T04:46:51.109Z,6.2
2019-04-06T04:47:58.514Z,6.2
2019-04-06T04:49:05.715Z,6.2
2019-04-06T04:50:13.000Z,6.2
2019-04-06T04:51:20.341Z,6.2
2019-04-06T04:52:27.650Z,6.3
2019-04-06T04:53:34.573Z,6.3
2019-04-06T04:54:41.501Z,6.3
2019-04-06T04:55:48.819Z,6.3
2019-04-06T04:56:56.314Z,6.4
2019-04-06T04:58:03.713Z,6.4
2019-04-06T04:59:10.995Z,6.4
2019-04-06T05:00:18.245Z,6.4
2019-04-06T05:01:25.450Z,6.4
2019-04-06T05:02:32.440Z,6.4
2019-04-06T05:03:39.493Z,6.4
2019-04-06T05:04:46.859Z,6.5
2019-04-06T05:05:54.055Z,6.5
2019-04-06T05:07:01.288Z,6.4
2019-04-06T05:08:08.785Z,6.5
2019-04-06T05:09:16.049Z,6.4
2019-04-06T05:10:23.562Z,6.5
2019-04-06T05:11:30.800Z,6.5
2019-04-06T05:12:37.986Z,6.5
2019-04-06T05:13:45.230Z,6.5
2019-04-06T05:14:52.596Z,6.5
2019-04-06T05:15:59.788Z,6.6
2019-04-06T05:17:07.066Z,6.6
2019-04-06T05:18:14.372Z,6.6
2019-04-06T05:19:21.300Z,6.7
2019-04-06T05:20:28.579Z,6.7
2019-04-06T05:21:35.853Z,6.7
2019-04-06T05:22:43.074Z,6.7
2019-04-06T05:23:50.268Z,6.7
2019-04-06T05:24:57.626Z,6.8
2019-04-06T05:26:05.045Z,6.8
2019-04-06T05:27:12.250Z,6.8
2019-04-06T05:28:19.458Z,6.8
2019-04-06T05:29:26.785Z,6.8
2019-04-06T05:30:33.713Z,6.9
2019-04-06T05:31:40.912Z,6.9
2019-04-06T05:32:48.246Z,6.9
2019-04-06T05:33:55.462Z,6.9
2019-04-06T05:35:02.569Z,6.9
2019-04-06T05:36:09.927Z,7
2019-04-06T05:37:17.250Z,7
2019-04-06T05:38:24.462Z,7
2019-04-06T05:39:31.428Z,7.1
2019-04-06T05:40:38.632Z,7.1
2019-04-06T05:41:45.940Z,7.1
2019-04-06T05:42:53.137Z,7.1
2019-04-06T05:44:00.350Z,7.1
2019-04-06T05:45:07.313Z,7.1
2019-04-06T05:46:14.676Z,7.1
2019-04-06T05:47:21.702Z,7.1
2019-04-06T05:48:28.615Z,7.1
2019-04-06T05:49:35.821Z,7.1
2019-04-06T05:50:43.074Z,7
2019-04-06T05:51:50.396Z,7.1
2019-04-06T05:52:57.597Z,7.1
2019-04-06T05:54:04.529Z,7.1
2019-04-06T05:55:11.754Z,7.1
2019-04-06T05:56:19.076Z,7.1
2019-04-06T05:57:26.286Z,7.2
2019-04-06T05:58:33.212Z,7.2
2019-04-06T05:59:41.618Z,7.3
2019-04-06T06:00:48.928Z,7.3
2019-04-06T06:01:56.317Z,7.3
2019-04-06T06:03:03.281Z,7.3
2019-04-06T06:04:11.888Z,7.4
2019-04-06T06:05:19.202Z,7.4
2019-04-06T06:06:26.413Z,7.5
2019-04-06T06:07:34.050Z,7.5
2019-04-06T06:08:41.471Z,7.5
2019-04-06T06:09:48.908Z,7.5
2019-04-06T06:10:56.337Z,7.6
2019-04-06T06:12:03.588Z,7.5
2019-04-06T06:13:11.106Z,7.6
2019-04-06T06:14:18.308Z,7.6
2019-04-06T06:15:24.962Z,7.6
2019-04-06T06:16:32.004Z,7.6
2019-04-06T06:17:38.932Z,7.6
2019-04-06T06:18:46.241Z,7.6
2019-04-06T06:19:53.256Z,7.7
2019-04-06T06:21:00.217Z,7.7
2019-04-06T06:22:07.429Z,7.8
2019-04-06T06:23:14.554Z,7.8
2019-04-06T06:24:21.486Z,7.9
2019-04-06T06:25:28.569Z,7.9
2019-04-06T06:26:35.840Z,8
2019-04-06T06:27:42.900Z,8.1
2019-04-06T06:28:50.101Z,8.2
2019-04-06T06:29:57.305Z,8.3
2019-04-06T06:31:04.518Z,8.3
2019-04-06T06:32:11.948Z,8.4
2019-04-06T06:33:18.686Z,8.5
2019-04-06T06:34:25.616Z,8.6
2019-04-06T06:35:32.817Z,8.6
2019-04-06T06:36:40.252Z,8.6
2019-04-06T06:37:47.481Z,8.6
2019-04-06T06:38:54.682Z,8.7
2019-04-06T06:40:01.890Z,8.7
2019-04-06T06:41:09.119Z,8.7
2019-04-06T06:42:16.386Z,8.8
2019-04-06T06:43:23.583Z,8.9
2019-04-06T06:44:30.791Z,9
2019-04-06T06:45:38.197Z,9.1
2019-04-06T06:46:45.393Z,9.2
2019-04-06T06:47:52.607Z,9.3
2019-04-06T06:48:59.953Z,9.4
2019-04-06T06:50:07.261Z,9.4
2019-04-06T06:51:14.691Z,9.4
2019-04-06T06:52:21.912Z,9.5
2019-04-06T06:53:28.877Z,9.5
2019-04-06T06:54:36.458Z,9.5
2019-04-06T06:55:43.539Z,9.5
2019-04-06T06:56:50.810Z,9.4
2019-04-06T06:57:57.938Z,9.4
2019-04-06T06:59:04.880Z,9.4
2019-04-06T07:00:12.294Z,9.5
2019-04-06T07:01:19.730Z,9.6
2019-04-06T07:02:26.643Z,9.8
2019-04-06T07:03:33.923Z,9.8
2019-04-06T07:04:41.710Z,10
2019-04-06T07:05:49.143Z,10.2
2019-04-06T07:06:56.652Z,10.4
2019-04-06T07:08:04.087Z,10.6
2019-04-06T07:09:11.389Z,10.9
2019-04-06T07:10:18.471Z,11.2
2019-04-06T07:11:25.675Z,11.4
2019-04-06T07:12:32.947Z,11.6
2019-04-06T07:13:40.353Z,11.8
2019-04-06T07:14:47.582Z,12
2019-04-06T07:15:54.965Z,12.2
2019-04-06T07:17:02.242Z,12.3
2019-04-06T07:18:09.460Z,12.4
2019-04-06T07:19:16.514Z,12.2
2019-04-06T07:20:23.718Z,12
2019-04-06T07:21:30.759Z,11.7
2019-04-06T07:22:38.053Z,11.5
2019-04-06T07:23:45.675Z,11.5
2019-04-06T07:24:53.162Z,11.3
2019-04-06T07:26:00.742Z,11.4
2019-04-06T07:27:08.024Z,11.4
2019-04-06T07:28:14.780Z,11.3
2019-04-06T07:29:21.749Z,11.4
2019-04-06T07:30:29.176Z,11.6
2019-04-06T07:31:36.510Z,11.8
2019-04-06T07:32:43.875Z,12
2019-04-06T07:33:51.158Z,12
2019-04-06T07:34:58.468Z,11.7
2019-04-06T07:36:06.059Z,11.9
2019-04-06T07:37:14.389Z,12.1
2019-04-06T07:38:21.800Z,12.1
2019-04-06T07:39:28.758Z,11.9
2019-04-06T07:40:35.511Z,12.1
2019-04-06T07:41:42.454Z,12.3
2019-04-06T07:42:49.802Z,12.3
2019-04-06T07:43:57.100Z,12.4
2019-04-06T07:45:04.322Z,12.5
2019-04-06T07:46:11.402Z,12.6
2019-04-06T07:47:18.868Z,12.6
2019-04-06T07:48:26.077Z,12.7
2019-04-06T07:49:33.079Z,12.7
2019-04-06T07:50:40.341Z,13
2019-04-06T07:51:47.763Z,13.2
2019-04-06T07:52:54.770Z,13.4
2019-04-06T07:54:01.940Z,13.6
2019-04-06T07:55:09.602Z,13.9
2019-04-06T07:56:16.535Z,14
2019-04-06T07:57:23.737Z,14.2
2019-04-06T07:58:30.988Z,14.3
2019-04-06T07:59:38.118Z,14.1
2019-04-06T08:00:45.271Z,14.2
2019-04-06T08:01:52.688Z,14.3
2019-04-06T08:02:59.896Z,14.4
2019-04-06T08:04:07.128Z,14.5
2019-04-06T08:05:14.463Z,14.6
2019-04-06T08:06:21.669Z,14.5
2019-04-06T08:07:29.012Z,14.7
2019-04-06T08:08:36.333Z,14.4
2019-04-06T08:09:43.551Z,14.1
2019-04-06T08:10:50.757Z,13.8
2019-04-06T08:11:58.386Z,13.8
2019-04-06T08:13:05.800Z,13.8
2019-04-06T08:14:13.022Z,14
2019-04-06T08:15:20.408Z,14.1
2019-04-06T08:16:27.342Z,14.2
2019-04-06T08:17:34.551Z,14.2
2019-04-06T08:18:41.571Z,14.4
2019-04-06T08:19:48.902Z,14.6
2019-04-06T08:20:56.117Z,14.7
2019-04-06T08:22:03.061Z,14.7
2019-04-06T08:23:09.983Z,14.7
2019-04-06T08:24:17.195Z,14.7
2019-04-06T08:25:24.513Z,14.7
2019-04-06T08:26:31.861Z,14.6
2019-04-06T08:27:39.452Z,14.6
2019-04-06T08:28:46.397Z,14.6
2019-04-06T08:29:53.338Z,14.5
2019-04-06T08:31:00.595Z,14.5
2019-04-06T08:32:07.546Z,14.7
2019-04-06T08:33:14.751Z,14.9
2019-04-06T08:34:22.007Z,14.4
2019-04-06T08:35:29.294Z,14.5
2019-04-06T08:36:36.240Z,14.7
2019-04-06T08:37:43.447Z,14.7
2019-04-06T08:38:50.678Z,14.8
2019-04-06T08:39:58.083Z,15
2019-04-06T08:41:05.317Z,15.1
2019-04-06T08:42:12.540Z,15.3
2019-04-06T08:43:19.572Z,15.1
2019-04-06T08:44:26.887Z,15.2
2019-04-06T08:45:34.161Z,15.5
2019-04-06T08:46:55.450Z,15.8
2019-04-06T08:48:02.730Z,15.8
2019-04-06T08:49:09.970Z,15.6
2019-04-06T08:50:17.271Z,15.7
2019-04-06T08:51:24.626Z,15.9
2019-04-06T08:52:31.971Z,16.1
2019-04-06T08:53:39.172Z,16.2
2019-04-06T08:54:46.658Z,16
2019-04-06T08:55:54.496Z,15.7
2019-04-06T08:57:01.469Z,15.3
2019-04-06T08:58:08.852Z,15.7
2019-04-06T08:59:16.070Z,15.9
2019-04-06T09:00:23.514Z,16.1
2019-04-06T09:01:30.731Z,16.3
2019-04-06T09:02:37.677Z,15.9
2019-04-06T09:03:45.173Z,15.5
2019-04-06T09:04:52.447Z,15.2
2019-04-06T09:05:59.387Z,15.4
2019-04-06T09:07:06.730Z,15.7
2019-04-06T09:08:13.951Z,15.8
2019-04-06T09:09:20.885Z,16
2019-04-06T09:10:28.434Z,16.1
2019-04-06T09:11:35.082Z,16.3
2019-04-06T09:12:42.293Z,16.2
2019-04-06T09:13:49.569Z,16
2019-04-06T09:14:57.005Z,15.6
2019-04-06T09:16:04.526Z,15.7
2019-04-06T09:17:11.951Z,16.1
2019-04-06T09:18:19.154Z,16.3
2019-04-06T09:19:26.854Z,16.6
2019-04-06T09:20:34.100Z,16.8
2019-04-06T09:21:41.507Z,17
2019-04-06T09:22:48.557Z,17.1
2019-04-06T09:23:59.283Z,17.3
2019-04-06T09:25:05.999Z,17.3
2019-04-06T09:26:13.058Z,17.4
2019-04-06T09:27:20.442Z,17.5
2019-04-06T09:28:27.650Z,17.4
2019-04-06T09:29:34.873Z,17.2
2019-04-06T09:30:42.057Z,17.1
2019-04-06T09:31:49.286Z,17
2019-04-06T09:32:56.777Z,16.7
2019-04-06T09:34:03.939Z,16.7
2019-04-06T09:35:11.193Z,16.7
2019-04-06T09:36:18.440Z,16.7
2019-04-06T09:37:25.751Z,16.6
2019-04-06T09:38:32.973Z,16.6
2019-04-06T09:39:40.416Z,16.7
2019-04-06T09:40:47.382Z,17
2019-04-06T09:41:54.687Z,16.8
2019-04-06T09:43:02.030Z,16.8
2019-04-06T09:44:09.302Z,16.9
2019-04-06T09:45:16.663Z,17.2
2019-04-06T09:46:23.927Z,17.3
2019-04-06T09:47:31.498Z,17.6
2019-04-06T09:48:38.697Z,17.7
2019-04-06T09:49:45.916Z,17.8
2019-04-06T09:50:52.878Z,17.7
2019-04-06T09:52:00.204Z,17.9
2019-04-06T09:53:07.497Z,18
2019-04-06T09:54:15.067Z,18.2
2019-04-06T09:55:22.461Z,18.3
2019-04-06T09:56:29.690Z,18.6
2019-04-06T09:57:36.636Z,18.6
2019-04-06T09:58:43.855Z,18.5
2019-04-06T09:59:51.252Z,18.6
2019-04-06T10:00:58.725Z,18.2
2019-04-06T10:02:06.343Z,18.1
2019-04-06T10:03:13.615Z,18.2
2019-04-06T10:04:21.182Z,18.2
2019-04-06T10:05:28.603Z,17.9
2019-04-06T10:06:36.055Z,17.6
2019-04-06T10:07:43.460Z,17.4
2019-04-06T10:08:51.052Z,17.5
2019-04-06T10:09:58.384Z,17.5
2019-04-06T10:11:05.677Z,17.6
2019-04-06T10:12:13.115Z,17.9
2019-04-06T10:13:20.020Z,18.3
2019-04-06T10:14:27.507Z,18.2
2019-04-06T10:15:35.011Z,17.9
2019-04-06T10:16:42.491Z,17.7
2019-04-06T10:17:49.727Z,17.8
2019-04-06T10:18:57.066Z,18
2019-04-06T10:20:04.668Z,18.2
2019-04-06T10:21:11.941Z,18.2
2019-04-06T10:22:19.550Z,18.2
2019-04-06T10:23:26.827Z,18.1
2019-04-06T10:24:34.473Z,18
2019-04-06T10:25:41.674Z,17.9
2019-04-06T10:26:49.094Z,17.9
2019-04-06T10:27:56.474Z,18.1
2019-04-06T10:29:03.689Z,18.4
2019-04-06T10:30:10.639Z,18.5
2019-04-06T10:31:18.101Z,18.7
2019-04-06T10:32:25.913Z,18.6
2019-04-06T10:33:33.413Z,18.5
2019-04-06T10:34:40.570Z,18.7
2019-04-06T10:35:47.944Z,18.9
2019-04-06T10:36:55.536Z,19
2019-04-06T10:38:02.951Z,18.9
2019-04-06T10:39:10.436Z,18.7
2019-04-06T10:40:17.678Z,18.7
2019-04-06T10:41:24.772Z,18.6
2019-04-06T10:42:32.625Z,18.4
2019-04-06T10:43:39.766Z,18.3
2019-04-06T10:44:46.979Z,18.3
2019-04-06T10:45:54.726Z,18.4
2019-04-06T10:47:02.211Z,18.8
2019-04-06T10:48:09.546Z,19.2
2019-04-06T10:49:16.762Z,19.5
2019-04-06T10:50:24.137Z,19.3
2019-04-06T10:51:31.349Z,19
2019-04-06T10:52:38.563Z,18.5
2019-04-06T10:53:45.792Z,18.5
2019-04-06T10:54:52.979Z,18.7
2019-04-06T10:56:00.443Z,18.6
2019-04-06T10:57:07.787Z,18.9
2019-04-06T10:58:15.215Z,19.1
2019-04-06T10:59:22.999Z,19.1
2019-04-06T11:00:30.441Z,19
2019-04-06T11:01:37.864Z,18.7
2019-04-06T11:02:44.915Z,18.4
2019-04-06T11:03:52.118Z,18.2
2019-04-06T11:04:59.331Z,18.3
2019-04-06T11:06:06.545Z,18.7
2019-04-06T11:07:13.923Z,17.9
2019-04-06T11:08:21.073Z,17.8
2019-04-06T11:09:28.617Z,18.1
2019-04-06T11:10:36.449Z,18.3
2019-04-06T11:11:44.210Z,18.1
2019-04-06T11:12:51.155Z,18.2
2019-04-06T11:13:58.092Z,18.6
2019-04-06T11:15:05.307Z,18.7
2019-04-06T11:16:12.250Z,18.7
2019-04-06T11:17:19.816Z,18.5
2019-04-06T11:18:27.191Z,18.4
2019-04-06T11:19:34.428Z,18.2
2019-04-06T11:20:41.669Z,18.2
2019-04-06T11:21:49.396Z,18.3
2019-04-06T11:22:56.611Z,18.2
2019-04-06T11:24:04.133Z,18.6
2019-04-06T11:25:11.216Z,18.5
2019-04-06T11:26:18.665Z,18.7
2019-04-06T11:27:25.807Z,18.7
2019-04-06T11:28:33.256Z,18.9
2019-04-06T11:29:40.790Z,19.1
2019-04-06T11:30:48.209Z,19.3
2019-04-06T11:31:55.700Z,18.9
2019-04-06T11:33:02.649Z,19.1
2019-04-06T11:34:09.991Z,19.3
2019-04-06T11:35:17.531Z,19.5
2019-04-06T11:36:24.573Z,19.3
2019-04-06T11:37:31.831Z,19.4
2019-04-06T11:38:39.042Z,19.6
2019-04-06T11:39:46.431Z,19.8
2019-04-06T11:40:53.801Z,19.8
2019-04-06T11:42:01.072Z,19.8
2019-04-06T11:43:08.288Z,19.5
2019-04-06T11:44:15.790Z,19.3
2019-04-06T11:45:23.087Z,19.4
2019-04-06T11:46:30.421Z,19.5
2019-04-06T11:47:37.411Z,19.5
2019-04-06T11:48:46.316Z,19.8
2019-04-06T11:49:53.503Z,20.3
2019-04-06T11:51:00.876Z,20.3
2019-04-06T11:52:08.280Z,20.5
2019-04-06T11:53:15.584Z,20.8
2019-04-06T11:54:22.881Z,21.1
2019-04-06T11:55:30.228Z,20.6
2019-04-06T11:56:37.483Z,20.8
2019-04-06T11:57:44.997Z,20.9
2019-04-06T11:58:52.551Z,21
2019-04-06T11:59:59.781Z,21.1
2019-04-06T12:01:07.106Z,20.7
2019-04-06T12:02:14.407Z,20.8
2019-04-06T12:03:21.586Z,20.7
2019-04-06T12:04:28.798Z,20.4
2019-04-06T12:05:36.015Z,20
2019-04-06T12:06:43.534Z,19.3
2019-04-06T12:07:51.246Z,18.9
2019-04-06T12:08:58.831Z,18.9
2019-04-06T12:10:06.253Z,19.1
2019-04-06T12:11:13.544Z,19
2019-04-06T12:12:20.938Z,19
2019-04-06T12:13:28.156Z,19.1
2019-04-06T12:14:35.587Z,19.3
2019-04-06T12:15:42.581Z,19.4
2019-04-06T12:16:49.811Z,19.2
2019-04-06T12:17:57.691Z,18.8
2019-04-06T12:19:05.113Z,18.6
2019-04-06T12:20:12.342Z,18.8
2019-04-06T12:21:19.654Z,18.3
2019-04-06T12:22:26.997Z,18.4
2019-04-06T12:23:34.654Z,18.5
2019-04-06T12:24:41.731Z,18.7
2019-04-06T12:25:49.038Z,18.2
2019-04-06T12:26:56.544Z,18.2
2019-04-06T12:28:03.751Z,18.2
2019-04-06T12:29:10.965Z,18.2
2019-04-06T12:30:17.899Z,18.3
2019-04-06T12:31:25.570Z,18.1
2019-04-06T12:32:32.989Z,18.2
2019-04-06T12:33:40.334Z,18.2
2019-04-06T12:34:47.794Z,18.5
2019-04-06T12:35:55.435Z,18.9
2019-04-06T12:37:02.898Z,19.2
2019-04-06T12:38:09.866Z,19.6
2019-04-06T12:39:17.047Z,19.9
2019-04-06T12:40:24.171Z,20.1
2019-04-06T12:41:31.714Z,20.2
2019-04-06T12:42:38.921Z,20.3
2019-04-06T12:43:46.168Z,20.2
2019-04-06T12:44:53.438Z,20.3
2019-04-06T12:46:00.548Z,20.2
2019-04-06T12:47:07.811Z,20.2
2019-04-06T12:48:15.625Z,20.2
2019-04-06T12:49:22.623Z,20
2019-04-06T12:50:29.564Z,20.1
2019-04-06T12:51:36.953Z,20.2
2019-04-06T12:52:44.167Z,20
2019-04-06T12:53:51.447Z,19.8
2019-04-06T12:54:59.211Z,19.5
2019-04-06T12:56:06.768Z,19.3
2019-04-06T12:57:13.982Z,19.4
2019-04-06T12:58:21.190Z,19.3
2019-04-06T12:59:28.403Z,19.5
2019-04-06T13:00:35.425Z,19.7
2019-04-06T13:01:55.714Z,19.9
2019-04-06T13:03:03.413Z,20.3
2019-04-06T13:04:10.887Z,20.3
2019-04-06T13:05:18.276Z,20.4
2019-04-06T13:06:25.493Z,20.6
2019-04-06T13:07:32.712Z,21
2019-04-06T13:08:40.277Z,21.4
2019-04-06T13:09:48.325Z,21.4
2019-04-06T13:10:55.775Z,21.4
2019-04-06T13:12:02.718Z,21.4
2019-04-06T13:13:10.093Z,21.3
2019-04-06T13:14:17.499Z,20.8
2019-04-06T13:15:24.834Z,20.6
2019-04-06T13:16:32.242Z,20.4
2019-04-06T13:17:40.714Z,20.3
2019-04-06T13:18:48.036Z,20.3
2019-04-06T13:19:55.995Z,20.2
2019-04-06T13:21:03.248Z,20.1
2019-04-06T13:22:10.492Z,20.1
2019-04-06T13:23:17.836Z,20.3
2019-04-06T13:24:25.140Z,20.5
2019-04-06T13:25:32.756Z,20.3
2019-04-06T13:26:40.369Z,20.5
2019-04-06T13:27:49.909Z,20.6
2019-04-06T13:28:57.336Z,20.3
2019-04-06T13:30:04.765Z,20.4
2019-04-06T13:31:12.090Z,20.4
2019-04-06T13:32:18.515Z,20
2019-04-06T13:33:25.950Z,20
2019-04-06T13:34:32.890Z,19.8
2019-04-06T13:35:40.220Z,19.8
2019-04-06T13:36:48.009Z,19.7
2019-04-06T13:37:55.224Z,19.6
2019-04-06T13:39:02.518Z,19.8
2019-04-06T13:40:09.895Z,20.2
2019-04-06T13:41:17.102Z,20.6
2019-04-06T13:42:24.954Z,20.9
2019-04-06T13:43:31.930Z,20.9
2019-04-06T13:44:39.236Z,20.9
2019-04-06T13:45:46.532Z,20.9
2019-04-06T13:46:57.408Z,20.9
2019-04-06T13:48:04.778Z,20.7
2019-04-06T13:49:11.723Z,20.8
2019-04-06T13:50:18.998Z,20.8
2019-04-06T13:51:26.152Z,20.8
2019-04-06T13:52:33.484Z,20.8
2019-04-06T13:53:41.086Z,20.6
2019-04-06T13:54:48.659Z,20.4
2019-04-06T13:55:55.887Z,20.1
2019-04-06T13:57:03.154Z,19.8
2019-04-06T13:58:10.509Z,19.7
2019-04-06T13:59:17.647Z,19.7
2019-04-06T14:00:24.866Z,19.8
2019-04-06T14:01:32.123Z,19.8
2019-04-06T14:02:39.667Z,19.5
2019-04-06T14:03:46.909Z,19.6
2019-04-06T14:04:54.320Z,19.7
2019-04-06T14:06:01.696Z,19.8
2019-04-06T14:07:09.116Z,19.9
2019-04-06T14:08:16.788Z,19.9
2019-04-06T14:09:24.404Z,20.1
2019-04-06T14:10:32.075Z,20.3
2019-04-06T14:11:39.749Z,20.7
2019-04-06T14:12:47.079Z,20.7
2019-04-06T14:13:53.346Z,20.6
2019-04-06T14:15:00.964Z,20.4
2019-04-06T14:16:09.246Z,20.2
2019-04-06T14:17:16.690Z,20.1
2019-04-06T14:18:24.310Z,20.2
2019-04-06T14:19:33.493Z,19.7
2019-04-06T14:20:55.356Z,19.5
2019-04-06T14:22:02.564Z,19.5
2019-04-06T14:23:09.782Z,19.3
2019-04-06T14:24:17.079Z,19.3
2019-04-06T14:25:24.679Z,19.3
2019-04-06T14:26:31.892Z,19.2
2019-04-06T14:27:39.554Z,19.1
2019-04-06T14:28:46.773Z,19.1
2019-04-06T14:29:54.641Z,19.1
2019-04-06T14:31:02.463Z,19.1
2019-04-06T14:32:09.871Z,19
2019-04-06T14:33:16.963Z,19.1
2019-04-06T14:34:24.359Z,19.2
2019-04-06T14:35:31.371Z,19.3
2019-04-06T14:36:39.076Z,19.2
2019-04-06T14:37:46.285Z,19.2
2019-04-06T14:38:53.626Z,19.2
2019-04-06T14:40:00.716Z,19.2
2019-04-06T14:41:08.232Z,19.1
2019-04-06T14:42:15.627Z,19.3
2019-04-06T14:43:23.212Z,19.5
2019-04-06T14:44:30.611Z,19.8
2019-04-06T14:45:38.315Z,20.1
2019-04-06T14:46:46.229Z,20.2
2019-04-06T14:47:53.644Z,20
2019-04-06T14:49:28.387Z,20
2019-04-06T14:50:40.109Z,20.3
2019-04-06T14:51:47.598Z,20.7
2019-04-06T14:52:54.687Z,21.1
2019-04-06T14:54:02.477Z,21.1
2019-04-06T14:55:10.015Z,21.1
2019-04-06T14:56:17.648Z,20.9
2019-04-06T14:57:25.262Z,20.6
2019-04-06T14:58:33.206Z,20.4
2019-04-06T14:59:41.065Z,20.4
2019-04-06T15:00:48.605Z,20.2
2019-04-06T15:02:00.110Z,20
2019-04-06T15:03:22.414Z,20
2019-04-06T15:04:30.020Z,19.9
2019-04-06T15:05:37.628Z,19.8
2019-04-06T15:06:45.856Z,19.6
2019-04-06T15:07:53.247Z,19.6
2019-04-06T15:09:03.571Z,19.6
2019-04-06T15:10:10.842Z,19.6
2019-04-06T15:11:18.043Z,19.5
2019-04-06T15:12:25.023Z,19.5
2019-04-06T15:13:32.317Z,19.5
2019-04-06T15:14:40.389Z,19.5
2019-04-06T15:15:47.782Z,19.5